sensor_id;sensor_type;location;lat;lon;timestamp;temperature;humidity
38726;DHT22;24474;48.906;8.808;2023-08-21T00:00:10;23.60;99.90
38726;DHT22;24474;48.906;8.808;2023-08-21T00:02:38;23.50;99.90
38726;DHT22;24474;48.906;8.808;2023-08-21T00:05:04;23.50;99.90
38726;DHT22;24474;48.906;8.808;2023-08-21T00:07:31;23.50;99.90
38726;DHT22;24474;48.906;8.808;2023-08-21T00:09:57;23.40;99.90
38726;DHT22;24474;48.906;8.808;2023-08-21T00:12:22;23.40;99.90
38726;DHT22;24474;48.906;8.808;2023-08-21T00:14:48;23.40;99.90
38726;DHT22;24474;48.906;8.808;2023-08-21T00:17:13;23.40;99.90
38726;DHT22;24474;48.906;8.808;2023-08-21T00:19:39;23.40;99.90
38726;DHT22;24474;48.906;8.808;2023-08-21T00:22:05;23.30;99.90
38726;DHT22;24474;48.906;8.808;2023-08-21T00:24:31;23.30;99.90
38726;DHT22;24474;48.906;8.808;2023-08-21T00:26:56;23.30;99.90
38726;DHT22;24474;48.906;8.808;2023-08-21T00:29:22;23.30;99.90
38726;DHT22;24474;48.906;8.808;2023-08-21T00:31:47;23.30;99.90
38726;DHT22;24474;48.906;8.808;2023-08-21T00:34:13;23.20;99.90
38726;DHT22;24474;48.906;8.808;2023-08-21T00:36:39;23.20;99.90
38726;DHT22;24474;48.906;8.808;2023-08-21T00:39:04;23.20;99.90
38726;DHT22;24474;48.906;8.808;2023-08-21T00:41:33;23.20;99.90
38726;DHT22;24474;48.906;8.808;2023-08-21T00:43:59;23.10;99.90
38726;DHT22;24474;48.906;8.808;2023-08-21T00:46:25;23.10;99.90
38726;DHT22;24474;48.906;8.808;2023-08-21T00:48:52;23.10;99.90
38726;DHT22;24474;48.906;8.808;2023-08-21T00:51:19;23.10;99.90
38726;DHT22;24474;48.906;8.808;2023-08-21T00:53:45;23.00;99.90
38726;DHT22;24474;48.906;8.808;2023-08-21T00:56:11;23.00;99.90
38726;DHT22;24474;48.906;8.808;2023-08-21T00:58:42;23.00;99.90
38726;DHT22;24474;48.906;8.808;2023-08-21T01:01:09;23.00;99.90
38726;DHT22;24474;48.906;8.808;2023-08-21T01:03:34;22.90;99.90
38726;DHT22;24474;48.906;8.808;2023-08-21T01:06:00;22.90;99.90
38726;DHT22;24474;48.906;8.808;2023-08-21T01:11:39;22.80;99.90
38726;DHT22;24474;48.906;8.808;2023-08-21T01:14:31;22.80;99.90
38726;DHT22;24474;48.906;8.808;2023-08-21T01:17:00;22.80;99.90
38726;DHT22;24474;48.906;8.808;2023-08-21T01:19:38;22.70;99.90
38726;DHT22;24474;48.906;8.808;2023-08-21T01:22:05;22.70;99.90
38726;DHT22;24474;48.906;8.808;2023-08-21T01:24:31;22.70;99.90
38726;DHT22;24474;48.906;8.808;2023-08-21T01:26:58;22.70;99.90
38726;DHT22;24474;48.906;8.808;2023-08-21T01:29:24;22.70;99.90
38726;DHT22;24474;48.906;8.808;2023-08-21T01:32:05;22.60;99.90
38726;DHT22;24474;48.906;8.808;2023-08-21T01:34:34;22.60;99.90
38726;DHT22;24474;48.906;8.808;2023-08-21T01:37:03;22.60;99.90
38726;DHT22;24474;48.906;8.808;2023-08-21T01:39:30;22.50;99.90
38726;DHT22;24474;48.906;8.808;2023-08-21T01:41:57;22.50;99.90
38726;DHT22;24474;48.906;8.808;2023-08-21T01:44:24;22.50;99.90
38726;DHT22;24474;48.906;8.808;2023-08-21T01:46:52;22.50;99.90
38726;DHT22;24474;48.906;8.808;2023-08-21T01:49:19;22.50;99.90
38726;DHT22;24474;48.906;8.808;2023-08-21T01:51:46;22.50;99.90
38726;DHT22;24474;48.906;8.808;2023-08-21T01:54:12;22.40;99.90
38726;DHT22;24474;48.906;8.808;2023-08-21T01:56:37;22.40;99.90
38726;DHT22;24474;48.906;8.808;2023-08-21T01:59:07;22.40;99.90
38726;DHT22;24474;48.906;8.808;2023-08-21T02:01:34;22.40;99.90
38726;DHT22;24474;48.906;8.808;2023-08-21T02:04:00;22.30;99.90
38726;DHT22;24474;48.906;8.808;2023-08-21T02:06:26;22.30;99.90
38726;DHT22;24474;48.906;8.808;2023-08-21T02:08:51;22.30;99.90
38726;DHT22;24474;48.906;8.808;2023-08-21T02:11:17;22.30;99.90
38726;DHT22;24474;48.906;8.808;2023-08-21T02:13:43;22.30;99.90
38726;DHT22;24474;48.906;8.808;2023-08-21T02:16:09;22.20;99.90
38726;DHT22;24474;48.906;8.808;2023-08-21T02:18:34;22.20;99.90
38726;DHT22;24474;48.906;8.808;2023-08-21T02:21:01;22.20;99.90
38726;DHT22;24474;48.906;8.808;2023-08-21T02:23:27;22.20;99.90
38726;DHT22;24474;48.906;8.808;2023-08-21T02:25:54;22.10;99.90
38726;DHT22;24474;48.906;8.808;2023-08-21T02:28:20;22.10;99.90
38726;DHT22;24474;48.906;8.808;2023-08-21T02:30:46;22.10;99.90
38726;DHT22;24474;48.906;8.808;2023-08-21T02:33:12;22.00;99.90
38726;DHT22;24474;48.906;8.808;2023-08-21T02:35:38;22.00;99.90
38726;DHT22;24474;48.906;8.808;2023-08-21T02:38:04;22.00;99.90
38726;DHT22;24474;48.906;8.808;2023-08-21T02:40:29;22.00;99.90
38726;DHT22;24474;48.906;8.808;2023-08-21T02:42:55;22.00;99.90
38726;DHT22;24474;48.906;8.808;2023-08-21T02:45:21;22.00;99.90
38726;DHT22;24474;48.906;8.808;2023-08-21T02:47:46;22.00;99.90
38726;DHT22;24474;48.906;8.808;2023-08-21T02:50:12;21.90;99.90
38726;DHT22;24474;48.906;8.808;2023-08-21T02:52:38;21.90;99.90
38726;DHT22;24474;48.906;8.808;2023-08-21T02:55:04;21.90;99.90
38726;DHT22;24474;48.906;8.808;2023-08-21T02:57:30;21.80;99.90
38726;DHT22;24474;48.906;8.808;2023-08-21T02:59:56;21.80;99.90
38726;DHT22;24474;48.906;8.808;2023-08-21T03:02:22;21.80;99.90
38726;DHT22;24474;48.906;8.808;2023-08-21T03:04:49;21.80;99.90
38726;DHT22;24474;48.906;8.808;2023-08-21T03:07:15;21.80;99.90
38726;DHT22;24474;48.906;8.808;2023-08-21T03:09:41;21.80;99.90
38726;DHT22;24474;48.906;8.808;2023-08-21T03:12:08;21.70;99.90
38726;DHT22;24474;48.906;8.808;2023-08-21T03:14:34;21.70;99.90
38726;DHT22;24474;48.906;8.808;2023-08-21T03:16:59;21.70;99.90
38726;DHT22;24474;48.906;8.808;2023-08-21T03:19:25;21.70;99.90
38726;DHT22;24474;48.906;8.808;2023-08-21T03:21:51;21.70;99.90
38726;DHT22;24474;48.906;8.808;2023-08-21T03:24:17;21.70;99.90
38726;DHT22;24474;48.906;8.808;2023-08-21T03:26:43;21.60;99.90
38726;DHT22;24474;48.906;8.808;2023-08-21T03:29:09;21.60;99.90
38726;DHT22;24474;48.906;8.808;2023-08-21T03:31:34;21.60;99.90
38726;DHT22;24474;48.906;8.808;2023-08-21T03:34:01;21.60;99.90
38726;DHT22;24474;48.906;8.808;2023-08-21T03:36:27;21.60;99.90
38726;DHT22;24474;48.906;8.808;2023-08-21T03:39:02;21.60;99.90
38726;DHT22;24474;48.906;8.808;2023-08-21T03:41:29;21.50;99.90
38726;DHT22;24474;48.906;8.808;2023-08-21T03:43:55;21.50;99.90
38726;DHT22;24474;48.906;8.808;2023-08-21T03:46:20;21.50;99.90
38726;DHT22;24474;48.906;8.808;2023-08-21T03:48:46;21.50;99.90
38726;DHT22;24474;48.906;8.808;2023-08-21T03:51:12;21.50;99.90
38726;DHT22;24474;48.906;8.808;2023-08-21T03:53:37;21.40;99.90
38726;DHT22;24474;48.906;8.808;2023-08-21T03:56:04;21.40;99.90
38726;DHT22;24474;48.906;8.808;2023-08-21T03:58:31;21.40;99.90
38726;DHT22;24474;48.906;8.808;2023-08-21T04:00:57;21.40;99.90
38726;DHT22;24474;48.906;8.808;2023-08-21T04:03:22;21.40;99.90
38726;DHT22;24474;48.906;8.808;2023-08-21T04:05:48;21.30;99.90
38726;DHT22;24474;48.906;8.808;2023-08-21T04:08:14;21.30;99.90
38726;DHT22;24474;48.906;8.808;2023-08-21T04:10:39;21.30;99.90
38726;DHT22;24474;48.906;8.808;2023-08-21T04:13:07;21.30;99.90
38726;DHT22;24474;48.906;8.808;2023-08-21T04:15:33;21.30;99.90
38726;DHT22;24474;48.906;8.808;2023-08-21T04:18:00;21.20;99.90
38726;DHT22;24474;48.906;8.808;2023-08-21T04:20:26;21.30;99.90
38726;DHT22;24474;48.906;8.808;2023-08-21T04:22:52;21.20;99.90
38726;DHT22;24474;48.906;8.808;2023-08-21T04:25:17;21.20;99.90
38726;DHT22;24474;48.906;8.808;2023-08-21T04:27:44;21.20;99.90
38726;DHT22;24474;48.906;8.808;2023-08-21T04:30:11;21.10;99.90
38726;DHT22;24474;48.906;8.808;2023-08-21T04:32:36;21.10;99.90
38726;DHT22;24474;48.906;8.808;2023-08-21T04:35:02;21.10;99.90
38726;DHT22;24474;48.906;8.808;2023-08-21T04:37:28;21.20;99.90
38726;DHT22;24474;48.906;8.808;2023-08-21T04:39:54;21.20;99.90
38726;DHT22;24474;48.906;8.808;2023-08-21T04:42:21;21.10;99.90
38726;DHT22;24474;48.906;8.808;2023-08-21T04:44:46;21.10;99.90
38726;DHT22;24474;48.906;8.808;2023-08-21T04:47:25;21.10;99.90
38726;DHT22;24474;48.906;8.808;2023-08-21T04:49:55;21.10;99.90
38726;DHT22;24474;48.906;8.808;2023-08-21T04:52:22;21.10;99.90
38726;DHT22;24474;48.906;8.808;2023-08-21T04:54:48;21.10;99.90
38726;DHT22;24474;48.906;8.808;2023-08-21T04:57:15;21.10;99.90
38726;DHT22;24474;48.906;8.808;2023-08-21T04:59:45;21.10;99.90
38726;DHT22;24474;48.906;8.808;2023-08-21T05:02:10;21.10;99.90
38726;DHT22;24474;48.906;8.808;2023-08-21T05:04:37;21.20;99.90
38726;DHT22;24474;48.906;8.808;2023-08-21T05:07:03;21.20;99.90
38726;DHT22;24474;48.906;8.808;2023-08-21T05:09:30;21.10;99.90
38726;DHT22;24474;48.906;8.808;2023-08-21T05:11:58;21.20;99.90
38726;DHT22;24474;48.906;8.808;2023-08-21T05:14:23;21.20;99.90
38726;DHT22;24474;48.906;8.808;2023-08-21T05:16:50;21.20;99.90
38726;DHT22;24474;48.906;8.808;2023-08-21T05:19:16;21.20;99.90
38726;DHT22;24474;48.906;8.808;2023-08-21T05:21:42;21.20;99.90
38726;DHT22;24474;48.906;8.808;2023-08-21T05:24:08;21.20;99.90
38726;DHT22;24474;48.906;8.808;2023-08-21T05:26:36;21.30;99.90
38726;DHT22;24474;48.906;8.808;2023-08-21T05:29:02;21.30;99.90
38726;DHT22;24474;48.906;8.808;2023-08-21T05:31:28;21.30;99.90
38726;DHT22;24474;48.906;8.808;2023-08-21T05:33:54;21.30;99.90
38726;DHT22;24474;48.906;8.808;2023-08-21T05:36:23;21.30;99.90
38726;DHT22;24474;48.906;8.808;2023-08-21T05:38:49;21.40;99.90
38726;DHT22;24474;48.906;8.808;2023-08-21T05:41:16;21.40;99.90
38726;DHT22;24474;48.906;8.808;2023-08-21T05:43:42;21.40;99.90
38726;DHT22;24474;48.906;8.808;2023-08-21T05:46:08;21.40;99.90
38726;DHT22;24474;48.906;8.808;2023-08-21T05:48:34;21.40;99.90
38726;DHT22;24474;48.906;8.808;2023-08-21T05:51:00;21.50;99.90
38726;DHT22;24474;48.906;8.808;2023-08-21T05:53:25;21.50;99.90
38726;DHT22;24474;48.906;8.808;2023-08-21T05:55:52;21.50;99.90
38726;DHT22;24474;48.906;8.808;2023-08-21T05:58:18;21.60;99.90
38726;DHT22;24474;48.906;8.808;2023-08-21T06:00:46;21.60;99.90
38726;DHT22;24474;48.906;8.808;2023-08-21T06:03:11;21.60;99.90
38726;DHT22;24474;48.906;8.808;2023-08-21T06:05:37;21.70;99.90
38726;DHT22;24474;48.906;8.808;2023-08-21T06:08:02;21.80;99.90
38726;DHT22;24474;48.906;8.808;2023-08-21T06:10:28;21.80;99.90
38726;DHT22;24474;48.906;8.808;2023-08-21T06:12:55;21.80;99.90
38726;DHT22;24474;48.906;8.808;2023-08-21T06:15:23;21.90;99.90
38726;DHT22;24474;48.906;8.808;2023-08-21T06:17:49;21.90;99.90
38726;DHT22;24474;48.906;8.808;2023-08-21T06:20:16;22.00;99.90
38726;DHT22;24474;48.906;8.808;2023-08-21T06:22:43;22.00;99.90
38726;DHT22;24474;48.906;8.808;2023-08-21T06:25:10;22.00;99.90
38726;DHT22;24474;48.906;8.808;2023-08-21T06:27:37;22.10;99.90
38726;DHT22;24474;48.906;8.808;2023-08-21T06:30:03;22.10;99.90
38726;DHT22;24474;48.906;8.808;2023-08-21T06:32:29;22.20;99.90
38726;DHT22;24474;48.906;8.808;2023-08-21T06:34:55;22.20;99.90
38726;DHT22;24474;48.906;8.808;2023-08-21T06:37:21;22.30;99.90
38726;DHT22;24474;48.906;8.808;2023-08-21T06:39:47;22.30;99.90
38726;DHT22;24474;48.906;8.808;2023-08-21T06:42:14;22.30;99.90
38726;DHT22;24474;48.906;8.808;2023-08-21T06:44:40;22.40;99.90
38726;DHT22;24474;48.906;8.808;2023-08-21T06:47:07;22.40;99.90
38726;DHT22;24474;48.906;8.808;2023-08-21T06:49:34;22.50;99.90
38726;DHT22;24474;48.906;8.808;2023-08-21T06:52:01;22.50;99.90
38726;DHT22;24474;48.906;8.808;2023-08-21T06:54:29;22.60;99.90
38726;DHT22;24474;48.906;8.808;2023-08-21T06:56:54;22.60;99.90
38726;DHT22;24474;48.906;8.808;2023-08-21T06:59:20;22.70;99.90
38726;DHT22;24474;48.906;8.808;2023-08-21T07:01:46;22.80;99.90
38726;DHT22;24474;48.906;8.808;2023-08-21T07:04:12;22.80;99.90
38726;DHT22;24474;48.906;8.808;2023-08-21T07:06:40;22.90;99.90
38726;DHT22;24474;48.906;8.808;2023-08-21T07:09:06;23.00;99.90
38726;DHT22;24474;48.906;8.808;2023-08-21T07:11:33;23.00;99.90
38726;DHT22;24474;48.906;8.808;2023-08-21T07:14:00;23.10;99.90
38726;DHT22;24474;48.906;8.808;2023-08-21T07:16:25;23.10;99.90
38726;DHT22;24474;48.906;8.808;2023-08-21T07:18:53;23.20;99.90
38726;DHT22;24474;48.906;8.808;2023-08-21T07:21:18;23.30;99.90
38726;DHT22;24474;48.906;8.808;2023-08-21T07:23:44;23.30;99.90
38726;DHT22;24474;48.906;8.808;2023-08-21T07:26:11;23.40;99.90
38726;DHT22;24474;48.906;8.808;2023-08-21T07:28:37;23.40;99.90
38726;DHT22;24474;48.906;8.808;2023-08-21T07:31:04;23.50;99.90
38726;DHT22;24474;48.906;8.808;2023-08-21T07:33:30;23.60;99.90
38726;DHT22;24474;48.906;8.808;2023-08-21T07:36:04;23.60;99.90
38726;DHT22;24474;48.906;8.808;2023-08-21T07:38:30;23.70;99.90
38726;DHT22;24474;48.906;8.808;2023-08-21T07:41:08;23.70;99.90
38726;DHT22;24474;48.906;8.808;2023-08-21T07:43:40;23.80;99.90
38726;DHT22;24474;48.906;8.808;2023-08-21T07:46:09;23.80;99.90
38726;DHT22;24474;48.906;8.808;2023-08-21T07:48:39;23.90;99.90
38726;DHT22;24474;48.906;8.808;2023-08-21T07:51:05;24.00;99.90
38726;DHT22;24474;48.906;8.808;2023-08-21T07:53:31;24.00;99.90
38726;DHT22;24474;48.906;8.808;2023-08-21T07:55:58;24.00;99.90
38726;DHT22;24474;48.906;8.808;2023-08-21T07:58:25;24.10;99.90
38726;DHT22;24474;48.906;8.808;2023-08-21T08:00:51;24.10;99.90
38726;DHT22;24474;48.906;8.808;2023-08-21T08:03:18;24.20;99.90
38726;DHT22;24474;48.906;8.808;2023-08-21T08:05:44;24.30;99.90
38726;DHT22;24474;48.906;8.808;2023-08-21T08:08:10;24.30;99.90
38726;DHT22;24474;48.906;8.808;2023-08-21T08:10:40;24.30;99.90
38726;DHT22;24474;48.906;8.808;2023-08-21T08:13:06;24.40;99.90
38726;DHT22;24474;48.906;8.808;2023-08-21T08:15:33;24.50;99.90
38726;DHT22;24474;48.906;8.808;2023-08-21T08:18:02;24.50;99.90
38726;DHT22;24474;48.906;8.808;2023-08-21T08:20:28;24.60;99.90
38726;DHT22;24474;48.906;8.808;2023-08-21T08:22:55;24.60;99.90
38726;DHT22;24474;48.906;8.808;2023-08-21T08:25:23;24.70;99.90
38726;DHT22;24474;48.906;8.808;2023-08-21T08:27:48;24.70;99.90
38726;DHT22;24474;48.906;8.808;2023-08-21T08:30:15;24.80;99.90
38726;DHT22;24474;48.906;8.808;2023-08-21T08:32:42;24.80;99.90
38726;DHT22;24474;48.906;8.808;2023-08-21T08:35:14;24.80;99.90
38726;DHT22;24474;48.906;8.808;2023-08-21T08:37:41;24.90;99.90
38726;DHT22;24474;48.906;8.808;2023-08-21T08:40:08;25.00;99.90
38726;DHT22;24474;48.906;8.808;2023-08-21T08:42:35;25.00;99.90
38726;DHT22;24474;48.906;8.808;2023-08-21T08:45:06;25.10;99.90
38726;DHT22;24474;48.906;8.808;2023-08-21T08:47:33;25.20;99.90
38726;DHT22;24474;48.906;8.808;2023-08-21T08:50:04;25.30;99.90
38726;DHT22;24474;48.906;8.808;2023-08-21T08:52:35;25.30;99.90
38726;DHT22;24474;48.906;8.808;2023-08-21T08:55:02;25.40;99.90
38726;DHT22;24474;48.906;8.808;2023-08-21T08:57:28;25.40;99.90
38726;DHT22;24474;48.906;8.808;2023-08-21T08:59:54;25.50;99.90
38726;DHT22;24474;48.906;8.808;2023-08-21T09:02:22;25.50;99.90
38726;DHT22;24474;48.906;8.808;2023-08-21T09:04:52;25.60;99.90
38726;DHT22;24474;48.906;8.808;2023-08-21T09:07:19;25.60;99.90
38726;DHT22;24474;48.906;8.808;2023-08-21T09:09:46;25.70;99.90
38726;DHT22;24474;48.906;8.808;2023-08-21T09:12:16;25.80;99.90
38726;DHT22;24474;48.906;8.808;2023-08-21T09:14:43;25.80;99.90
38726;DHT22;24474;48.906;8.808;2023-08-21T09:17:11;25.90;99.90
38726;DHT22;24474;48.906;8.808;2023-08-21T09:19:36;26.00;99.90
38726;DHT22;24474;48.906;8.808;2023-08-21T09:22:14;26.00;99.90
38726;DHT22;24474;48.906;8.808;2023-08-21T09:27:25;26.10;99.90
38726;DHT22;24474;48.906;8.808;2023-08-21T09:29:50;26.20;99.90
38726;DHT22;24474;48.906;8.808;2023-08-21T09:32:18;26.30;99.90
38726;DHT22;24474;48.906;8.808;2023-08-21T09:34:43;26.30;99.90
38726;DHT22;24474;48.906;8.808;2023-08-21T09:37:12;26.40;99.90
38726;DHT22;24474;48.906;8.808;2023-08-21T09:39:38;26.40;99.90
38726;DHT22;24474;48.906;8.808;2023-08-21T09:42:08;26.50;99.90
38726;DHT22;24474;48.906;8.808;2023-08-21T09:44:40;26.50;99.90
38726;DHT22;24474;48.906;8.808;2023-08-21T09:47:12;26.60;99.90
38726;DHT22;24474;48.906;8.808;2023-08-21T09:49:39;26.60;99.90
38726;DHT22;24474;48.906;8.808;2023-08-21T09:52:08;26.80;99.90
38726;DHT22;24474;48.906;8.808;2023-08-21T09:54:39;26.80;99.90
38726;DHT22;24474;48.906;8.808;2023-08-21T09:57:07;26.80;99.90
38726;DHT22;24474;48.906;8.808;2023-08-21T09:59:35;26.80;99.90
38726;DHT22;24474;48.906;8.808;2023-08-21T10:02:04;26.90;99.90
38726;DHT22;24474;48.906;8.808;2023-08-21T10:04:32;27.00;99.90
38726;DHT22;24474;48.906;8.808;2023-08-21T10:07:06;27.00;99.90
38726;DHT22;24474;48.906;8.808;2023-08-21T10:09:33;27.10;99.90
38726;DHT22;24474;48.906;8.808;2023-08-21T10:12:00;27.20;99.90
38726;DHT22;24474;48.906;8.808;2023-08-21T10:14:27;27.20;99.90
38726;DHT22;24474;48.906;8.808;2023-08-21T10:16:53;27.20;99.90
38726;DHT22;24474;48.906;8.808;2023-08-21T10:19:21;27.20;99.90
38726;DHT22;24474;48.906;8.808;2023-08-21T10:21:47;27.30;99.90
38726;DHT22;24474;48.906;8.808;2023-08-21T10:24:27;27.30;99.90
38726;DHT22;24474;48.906;8.808;2023-08-21T10:26:58;27.30;99.90
38726;DHT22;24474;48.906;8.808;2023-08-21T10:29:25;27.30;99.90
38726;DHT22;24474;48.906;8.808;2023-08-21T10:32:02;27.40;99.90
38726;DHT22;24474;48.906;8.808;2023-08-21T10:34:35;27.40;99.90
38726;DHT22;24474;48.906;8.808;2023-08-21T10:37:10;27.50;99.90
38726;DHT22;24474;48.906;8.808;2023-08-21T10:39:55;27.60;99.90
38726;DHT22;24474;48.906;8.808;2023-08-21T10:42:37;27.60;99.90
38726;DHT22;24474;48.906;8.808;2023-08-21T10:45:11;27.70;99.90
38726;DHT22;24474;48.906;8.808;2023-08-21T10:47:38;27.70;99.90
38726;DHT22;24474;48.906;8.808;2023-08-21T10:50:08;27.80;99.90
38726;DHT22;24474;48.906;8.808;2023-08-21T10:52:42;27.80;99.90
38726;DHT22;24474;48.906;8.808;2023-08-21T10:55:15;27.90;99.90
38726;DHT22;24474;48.906;8.808;2023-08-21T10:57:41;28.00;99.90
38726;DHT22;24474;48.906;8.808;2023-08-21T11:00:12;28.00;99.90
38726;DHT22;24474;48.906;8.808;2023-08-21T11:02:39;28.00;99.90
38726;DHT22;24474;48.906;8.808;2023-08-21T11:05:06;28.00;99.90
38726;DHT22;24474;48.906;8.808;2023-08-21T11:07:42;28.10;99.90
38726;DHT22;24474;48.906;8.808;2023-08-21T11:10:23;28.10;99.90
38726;DHT22;24474;48.906;8.808;2023-08-21T11:12:56;28.10;99.90
38726;DHT22;24474;48.906;8.808;2023-08-21T11:15:25;28.20;99.90
38726;DHT22;24474;48.906;8.808;2023-08-21T11:17:54;28.20;99.90
38726;DHT22;24474;48.906;8.808;2023-08-21T11:20:22;28.20;99.90
38726;DHT22;24474;48.906;8.808;2023-08-21T11:22:48;28.30;99.90
38726;DHT22;24474;48.906;8.808;2023-08-21T11:25:16;28.30;99.90
38726;DHT22;24474;48.906;8.808;2023-08-21T11:27:42;28.30;99.90
38726;DHT22;24474;48.906;8.808;2023-08-21T11:30:11;28.40;99.90
38726;DHT22;24474;48.906;8.808;2023-08-21T11:32:37;28.40;99.90
38726;DHT22;24474;48.906;8.808;2023-08-21T11:35:04;28.40;99.90
38726;DHT22;24474;48.906;8.808;2023-08-21T11:37:31;28.50;99.90
38726;DHT22;24474;48.906;8.808;2023-08-21T11:39:58;28.50;99.90
38726;DHT22;24474;48.906;8.808;2023-08-21T11:42:32;28.50;99.90
38726;DHT22;24474;48.906;8.808;2023-08-21T11:45:00;28.60;99.90
38726;DHT22;24474;48.906;8.808;2023-08-21T11:47:34;28.60;99.90
38726;DHT22;24474;48.906;8.808;2023-08-21T11:50:07;28.80;99.90
38726;DHT22;24474;48.906;8.808;2023-08-21T11:52:34;28.80;99.90
38726;DHT22;24474;48.906;8.808;2023-08-21T11:55:08;28.90;99.90
38726;DHT22;24474;48.906;8.808;2023-08-21T11:57:50;29.00;99.90
38726;DHT22;24474;48.906;8.808;2023-08-21T12:00:18;29.00;99.90
38726;DHT22;24474;48.906;8.808;2023-08-21T12:02:58;29.10;99.90
38726;DHT22;24474;48.906;8.808;2023-08-21T12:05:28;29.10;99.90
38726;DHT22;24474;48.906;8.808;2023-08-21T12:07:55;29.20;99.90
38726;DHT22;24474;48.906;8.808;2023-08-21T12:10:30;29.20;99.90
38726;DHT22;24474;48.906;8.808;2023-08-21T12:12:57;29.20;99.90
38726;DHT22;24474;48.906;8.808;2023-08-21T12:15:26;29.10;99.90
38726;DHT22;24474;48.906;8.808;2023-08-21T12:17:53;29.10;99.90
38726;DHT22;24474;48.906;8.808;2023-08-21T12:20:18;29.10;99.90
38726;DHT22;24474;48.906;8.808;2023-08-21T12:22:44;29.10;99.90
38726;DHT22;24474;48.906;8.808;2023-08-21T12:25:10;29.10;99.90
38726;DHT22;24474;48.906;8.808;2023-08-21T12:27:36;29.10;99.90
38726;DHT22;24474;48.906;8.808;2023-08-21T12:30:03;29.10;99.90
38726;DHT22;24474;48.906;8.808;2023-08-21T12:32:29;29.10;99.90
38726;DHT22;24474;48.906;8.808;2023-08-21T12:34:56;29.10;99.90
38726;DHT22;24474;48.906;8.808;2023-08-21T12:37:22;29.10;99.90
38726;DHT22;24474;48.906;8.808;2023-08-21T12:39:48;29.10;99.90
38726;DHT22;24474;48.906;8.808;2023-08-21T12:42:15;29.10;99.90
38726;DHT22;24474;48.906;8.808;2023-08-21T12:44:42;29.10;99.90
38726;DHT22;24474;48.906;8.808;2023-08-21T12:47:08;29.20;99.90
38726;DHT22;24474;48.906;8.808;2023-08-21T12:49:34;29.30;99.90
38726;DHT22;24474;48.906;8.808;2023-08-21T12:52:02;29.40;99.90
38726;DHT22;24474;48.906;8.808;2023-08-21T12:54:40;29.40;99.90
38726;DHT22;24474;48.906;8.808;2023-08-21T12:57:08;29.50;99.90
38726;DHT22;24474;48.906;8.808;2023-08-21T12:59:35;29.40;99.90
38726;DHT22;24474;48.906;8.808;2023-08-21T13:02:02;29.50;99.90
38726;DHT22;24474;48.906;8.808;2023-08-21T13:04:29;29.50;99.90
38726;DHT22;24474;48.906;8.808;2023-08-21T13:06:56;29.40;99.90
38726;DHT22;24474;48.906;8.808;2023-08-21T13:09:23;29.40;99.90
38726;DHT22;24474;48.906;8.808;2023-08-21T13:11:51;29.40;99.90
38726;DHT22;24474;48.906;8.808;2023-08-21T13:14:18;29.40;99.90
38726;DHT22;24474;48.906;8.808;2023-08-21T13:16:45;29.50;99.90
38726;DHT22;24474;48.906;8.808;2023-08-21T13:19:11;29.50;99.90
38726;DHT22;24474;48.906;8.808;2023-08-21T13:21:38;29.60;99.90
38726;DHT22;24474;48.906;8.808;2023-08-21T13:24:06;29.60;99.90
38726;DHT22;24474;48.906;8.808;2023-08-21T13:26:32;29.60;99.90
38726;DHT22;24474;48.906;8.808;2023-08-21T13:28:59;29.60;99.90
38726;DHT22;24474;48.906;8.808;2023-08-21T13:31:26;29.60;99.90
38726;DHT22;24474;48.906;8.808;2023-08-21T13:33:52;29.60;99.90
38726;DHT22;24474;48.906;8.808;2023-08-21T13:36:20;29.60;99.90
38726;DHT22;24474;48.906;8.808;2023-08-21T13:38:49;29.70;99.90
38726;DHT22;24474;48.906;8.808;2023-08-21T13:41:14;29.70;99.90
38726;DHT22;24474;48.906;8.808;2023-08-21T13:43:41;29.70;99.90
38726;DHT22;24474;48.906;8.808;2023-08-21T13:46:08;29.80;99.90
38726;DHT22;24474;48.906;8.808;2023-08-21T13:48:35;29.90;99.90
38726;DHT22;24474;48.906;8.808;2023-08-21T13:51:02;30.00;99.90
38726;DHT22;24474;48.906;8.808;2023-08-21T13:53:30;30.00;99.90
38726;DHT22;24474;48.906;8.808;2023-08-21T13:55:57;30.10;99.90
38726;DHT22;24474;48.906;8.808;2023-08-21T13:58:23;30.10;99.90
38726;DHT22;24474;48.906;8.808;2023-08-21T14:00:51;30.10;99.90
38726;DHT22;24474;48.906;8.808;2023-08-21T14:03:18;30.10;99.90
38726;DHT22;24474;48.906;8.808;2023-08-21T14:05:44;30.10;99.90
38726;DHT22;24474;48.906;8.808;2023-08-21T14:08:11;30.10;99.90
38726;DHT22;24474;48.906;8.808;2023-08-21T14:10:37;30.20;99.90
38726;DHT22;24474;48.906;8.808;2023-08-21T14:13:05;30.10;99.80
38726;DHT22;24474;48.906;8.808;2023-08-21T14:15:34;30.10;99.80
38726;DHT22;24474;48.906;8.808;2023-08-21T14:18:02;30.10;99.80
38726;DHT22;24474;48.906;8.808;2023-08-21T14:20:33;30.10;99.80
38726;DHT22;24474;48.906;8.808;2023-08-21T14:23:00;30.20;99.40
38726;DHT22;24474;48.906;8.808;2023-08-21T14:25:27;30.20;99.70
38726;DHT22;24474;48.906;8.808;2023-08-21T14:27:54;30.20;99.90
38726;DHT22;24474;48.906;8.808;2023-08-21T14:30:26;30.20;99.80
38726;DHT22;24474;48.906;8.808;2023-08-21T14:32:52;30.30;99.90
38726;DHT22;24474;48.906;8.808;2023-08-21T14:35:19;30.30;99.90
38726;DHT22;24474;48.906;8.808;2023-08-21T14:37:46;30.30;99.20
38726;DHT22;24474;48.906;8.808;2023-08-21T14:40:13;30.40;99.20
38726;DHT22;24474;48.906;8.808;2023-08-21T14:42:40;30.30;99.70
38726;DHT22;24474;48.906;8.808;2023-08-21T14:45:07;30.40;99.20
38726;DHT22;24474;48.906;8.808;2023-08-21T14:47:34;30.30;99.50
38726;DHT22;24474;48.906;8.808;2023-08-21T14:50:05;30.30;99.70
38726;DHT22;24474;48.906;8.808;2023-08-21T14:52:32;30.30;99.70
38726;DHT22;24474;48.906;8.808;2023-08-21T14:54:58;30.30;99.80
38726;DHT22;24474;48.906;8.808;2023-08-21T14:57:26;30.40;99.90
38726;DHT22;24474;48.906;8.808;2023-08-21T14:59:53;30.40;99.50
38726;DHT22;24474;48.906;8.808;2023-08-21T15:02:19;30.50;99.30
38726;DHT22;24474;48.906;8.808;2023-08-21T15:04:45;30.50;99.20
38726;DHT22;24474;48.906;8.808;2023-08-21T15:07:11;30.50;99.20
38726;DHT22;24474;48.906;8.808;2023-08-21T15:09:36;30.40;98.90
38726;DHT22;24474;48.906;8.808;2023-08-21T15:12:02;30.50;98.60
38726;DHT22;24474;48.906;8.808;2023-08-21T15:14:27;30.50;98.60
38726;DHT22;24474;48.906;8.808;2023-08-21T15:16:53;30.50;98.60
38726;DHT22;24474;48.906;8.808;2023-08-21T15:19:19;30.50;98.30
38726;DHT22;24474;48.906;8.808;2023-08-21T15:21:44;30.50;98.50
38726;DHT22;24474;48.906;8.808;2023-08-21T15:24:10;30.40;98.30
38726;DHT22;24474;48.906;8.808;2023-08-21T15:26:36;30.40;98.60
38726;DHT22;24474;48.906;8.808;2023-08-21T15:29:01;30.40;98.50
38726;DHT22;24474;48.906;8.808;2023-08-21T15:31:28;30.40;98.20
38726;DHT22;24474;48.906;8.808;2023-08-21T15:33:55;30.40;98.30
38726;DHT22;24474;48.906;8.808;2023-08-21T15:36:23;30.40;98.30